Time;durP1;ratioP1;P1;durP2;ratioP2;P2;SDS_P1;SDS_P2;PMS_P1;PMS_P2;Temp;Humidity;BMP_temperature;BMP_pressure;BME280_temperature;BME280_humidity;BME280_pressure;Samples;Min_cycle;Max_cycle;Signal;HPM_P1;HPM_P2
2023/06/22 00:01:15;;;;;;;;;;;;;;;;;;5025586;28;19925;-64
2023/06/22 00:03:41;;;;;;;;;;;;;;;;;;5010616;28;19928;-64
2023/06/22 00:06:07;;;;;;;;;;;;;;;;;;5010784;28;19933;-63
2023/06/22 00:08:33;;;;;;;;;;;;;;;;;;5011085;28;19921;-64
2023/06/22 00:10:59;;;;;;;;;;;;;;;;;;5010365;28;19921;-67
2023/06/22 00:13:24;;;;;;;;;;;;;;;;;;5009343;28;19922;-67
2023/06/22 00:15:50;;;;;;;;;;;;;;;;;;5008529;28;19953;-67
2023/06/22 00:18:16;;;;;;;;;;;;;;;;;;5012418;28;19935;-68
2023/06/22 00:20:42;;;;;;;;;;;;;;;;;;5015117;28;19929;-67
2023/06/22 00:23:08;;;;;;;;;;;;;;;;;;5013200;28;19921;-62
2023/06/22 00:25:34;;;;;;;;;;;;;;;;;;5017111;28;19926;-62
2023/06/22 00:28:00;;;;;;;;;;;;;;;;;;5012370;28;19933;-62
2023/06/22 00:30:26;;;;;;;;;;;;;;;;;;5011863;28;19928;-62
2023/06/22 00:32:52;;;;;;;;;;;;;;;;;;5010881;28;19925;-62
2023/06/22 00:35:18;;;;;;;;;;;;;;;;;;5013063;28;20329;-62
2023/06/22 00:37:43;;;;;;;;;;;;;;;;;;5014204;28;19928;-62
2023/06/22 00:40:11;;;;;;;;;;;;;;;;;;5011946;28;19965;-62
2023/06/22 00:42:37;;;;;;;;;;;;;;;;;;5009393;28;20413;-67
2023/06/22 00:45:03;;;;;;;;;;;;;;;;;;5010890;28;19928;-67
2023/06/22 00:47:29;;;;;;;;;;;;;;;;;;5011971;28;19922;-67
2023/06/22 00:49:55;;;;;;;;;;;;;;;;;;5010443;28;20390;-67
2023/06/22 00:52:21;;;;;;;;;;;;;;;;;;5017969;28;19925;-67
2023/06/22 00:54:48;;;;;;;;;;;;;;;;;;5009707;28;19921;-67
2023/06/22 00:57:17;;;;;;;;;;;;;;;;;;5012588;28;19928;-67
2023/06/22 00:59:43;;;;;;;;;;;;;;;;;;5015265;28;19925;-67
2023/06/22 01:02:09;;;;;;;;;;;;;;;;;;5012185;28;19976;-67
2023/06/22 01:04:35;;;;;;;;;;;;;;;;;;5008689;28;19974;-68
2023/06/22 01:07:01;;;;;;;;;;;;;;;;;;5011393;28;20260;-67
2023/06/22 01:09:27;;;;;;;;;;;;;;;;;;5010148;28;19932;-67
2023/06/22 01:11:53;;;;;;;;;;;;;;;;;;5013913;28;19925;-67
2023/06/22 01:14:19;;;;;;;;;;;;;;;;;;5013633;28;19933;-67
2023/06/22 01:16:45;;;;;;;;;;;;;;;;;;5026832;28;19969;-67
2023/06/22 01:19:10;;;;;;;;;;;;;;;;;;5011427;28;20302;-67
2023/06/22 01:21:36;;;;;;;;;;;;;;;;;;5013360;28;19929;-67
2023/06/22 01:24:02;;;;;;;;;;;;;;;;;;5012166;28;19932;-67
2023/06/22 01:26:28;;;;;;;;;;;;;;;;;;5013212;28;19921;-67
2023/06/22 01:28:54;;;;;;;;;;;;;;;;;;5011832;28;19947;-67
2023/06/22 01:31:20;;;;;;;;;;;;;;;;;;5010838;28;19935;-67
2023/06/22 01:33:46;;;;;;;;;;;;;;;;;;5009919;28;20282;-67
2023/06/22 01:36:12;;;;;;;;;;;;;;;;;;5012039;28;19921;-67
2023/06/22 01:38:38;;;;;;;;;;;;;;;;;;5012164;28;20413;-67
2023/06/22 01:41:04;;;;;;;;;;;;;;;;;;5013247;28;19929;-67
2023/06/22 01:43:30;;;;;;;;;;;;;;;;;;5013153;28;19925;-67
2023/06/22 01:45:56;;;;;;;;;;;;;;;;;;5010961;28;19921;-67
2023/06/22 01:48:21;;;;;;;;;;;;;;;;;;5012377;28;19968;-67
2023/06/22 01:50:47;;;;;;;;;;;;;;;;;;5010105;28;19925;-67
2023/06/22 01:53:13;;;;;;;;;;;;;;;;;;5011457;28;20293;-67
2023/06/22 01:55:39;;;;;;;;;;;;;;;;;;5011795;28;19929;-67
2023/06/22 01:58:05;;;;;;;;;;;;;;;;;;5012040;28;20024;-67
2023/06/22 02:00:31;;;;;;;;;;;;;;;;;;5008393;28;19975;-67
2023/06/22 02:02:57;;;;;;;;;;;;;;;;;;5010134;28;19925;-68
2023/06/22 02:05:23;;;;;;;;;;;;;;;;;;5009723;28;19934;-67
2023/06/22 02:07:49;;;;;;;;;;;;;;;;;;5007277;28;19921;-67
2023/06/22 02:10:14;;;;;;;;;;;;;;;;;;5009060;28;19977;-67
2023/06/22 02:12:40;;;;;;;;;;;;;;;;;;5008692;28;19929;-67
2023/06/22 02:15:06;;;;;;;;;;;;;;;;;;5009345;28;19921;-68
2023/06/22 02:17:32;;;;;;;;;;;;;;;;;;5008353;28;19929;-67
2023/06/22 02:19:58;;;;;;;;;;;;;;;;;;5011404;28;19991;-67
2023/06/22 02:22:24;;;;;;;;;;;;;;;;;;5010106;28;20338;-67
2023/06/22 02:24:50;;;;;;;;;;;;;;;;;;5008510;28;19926;-62
2023/06/22 02:27:16;;;;;;;;;;;;;;;;;;5010418;28;20330;-62
2023/06/22 02:29:42;;;;;;;;;;;;;;;;;;5025599;28;19926;-62
2023/06/22 02:32:08;;;;;;;;;;;;;;;;;;5006585;28;19976;-62
2023/06/22 02:34:34;;;;;;;;;;;;;;;;;;5011023;28;19964;-62
2023/06/22 02:37:00;;;;;;;;;;;;;;;;;;5009796;28;20204;-62
2023/06/22 02:39:26;;;;;;;;;;;;;;;;;;5009672;28;19945;-62
2023/06/22 02:41:52;;;;;;;;;;;;;;;;;;5005308;28;19929;-62
2023/06/22 02:44:18;;;;;;;;;;;;;;;;;;5008759;28;19980;-62
2023/06/22 02:46:44;;;;;;;;;;;;;;;;;;5008640;28;19925;-61
2023/06/22 02:49:10;;;;;;;;;;;;;;;;;;5010121;28;19925;-62
2023/06/22 02:51:36;;;;;;;;;;;;;;;;;;5010611;28;19928;-62
2023/06/22 02:54:02;;;;;;;;;;;;;;;;;;5013153;28;19941;-62
2023/06/22 02:56:28;;;;;;;;;;;;;;;;;;5009599;28;19956;-62
2023/06/22 02:58:54;;;;;;;;;;;;;;;;;;5008169;28;19949;-61
2023/06/22 03:01:23;;;;;;;;;;;;;;;;;;5008846;28;20275;-62
2023/06/22 03:03:49;;;;;;;;;;;;;;;;;;5007231;28;20387;-62
2023/06/22 03:06:15;;;;;;;;;;;;;;;;;;5009760;28;19933;-62
2023/06/22 03:08:41;;;;;;;;;;;;;;;;;;5008759;28;19936;-62
2023/06/22 03:11:07;;;;;;;;;;;;;;;;;;5021969;28;19921;-62
2023/06/22 03:13:33;;;;;;;;;;;;;;;;;;5010323;28;19925;-62
2023/06/22 03:15:59;;;;;;;;;;;;;;;;;;5000981;28;20469;-62
2023/06/22 03:18:25;;;;;;;;;;;;;;;;;;5011630;28;19922;-62
2023/06/22 03:20:51;;;;;;;;;;;;;;;;;;5011069;28;19947;-62
2023/06/22 03:23:17;;;;;;;;;;;;;;;;;;5010757;28;19925;-62
2023/06/22 03:25:46;;;;;;;;;;;;;;;;;;5025478;28;20378;-62
2023/06/22 03:28:12;;;;;;;;;;;;;;;;;;5008672;28;19944;-62
2023/06/22 03:30:38;;;;;;;;;;;;;;;;;;5010979;28;19925;-62
2023/06/22 03:33:04;;;;;;;;;;;;;;;;;;5005256;28;19925;-62
2023/06/22 03:35:30;;;;;;;;;;;;;;;;;;5011403;28;19927;-62
2023/06/22 03:37:56;;;;;;;;;;;;;;;;;;5011432;28;20303;-62
2023/06/22 03:40:22;;;;;;;;;;;;;;;;;;5011264;28;19933;-62
2023/06/22 03:42:48;;;;;;;;;;;;;;;;;;5011611;28;20303;-62
2023/06/22 03:45:13;;;;;;;;;;;;;;;;;;5008712;28;20016;-62
2023/06/22 03:47:39;;;;;;;;;;;;;;;;;;5011197;28;19956;-62
2023/06/22 03:50:05;;;;;;;;;;;;;;;;;;4992480;28;19926;-62
2023/06/22 03:52:32;;;;;;;;;;;;;;;;;;4995018;28;19933;-64
2023/06/22 03:54:58;;;;;;;;;;;;;;;;;;4995381;28;19921;-64
2023/06/22 03:57:24;;;;;;;;;;;;;;;;;;5013545;28;19925;-64
2023/06/22 03:59:50;;;;;;;;;;;;;;;;;;5016178;28;19933;-64
2023/06/22 04:02:15;;;;;;;;;;;;;;;;;;5014488;28;19921;-64
2023/06/22 04:04:41;;;;;;;;;;;;;;;;;;5015846;28;20406;-64
2023/06/22 04:07:08;;;;;;;;;;;;;;;;;;5012540;28;19929;-64
2023/06/22 04:09:34;;;;;;;;;;;;;;;;;;5014956;28;20012;-64
2023/06/22 04:12:00;;;;;;;;;;;;;;;;;;5014629;28;20059;-64
2023/06/22 04:14:26;;;;;;;;;;;;;;;;;;5015587;28;19928;-64
2023/06/22 04:16:52;;;;;;;;;;;;;;;;;;5027662;28;19929;-64
2023/06/22 04:19:17;;;;;;;;;;;;;;;;;;5014821;28;20334;-64
2023/06/22 04:21:44;;;;;;;;;;;;;;;;;;5015056;28;20008;-64
2023/06/22 04:24:10;;;;;;;;;;;;;;;;;;5009487;28;20290;-64
2023/06/22 04:26:37;;;;;;;;;;;;;;;;;;5013398;28;19921;-65
2023/06/22 04:29:05;;;;;;;;;;;;;;;;;;5014860;28;20539;-65
2023/06/22 04:31:31;;;;;;;;;;;;;;;;;;5004040;28;19925;-64
2023/06/22 04:34:05;;;;;;;;;;;;;;;;;;5012835;28;20016;-64
2023/06/22 04:36:37;;;;;;;;;;;;;;;;;;5014571;28;19925;-64
2023/06/22 04:39:03;;;;;;;;;;;;;;;;;;5013934;28;20421;-66
2023/06/22 04:41:29;;;;;;;;;;;;;;;;;;5015147;28;19922;-64
2023/06/22 04:43:59;;;;;;;;;;;;;;;;;;5015250;28;20398;-65
2023/06/22 04:46:25;;;;;;;;;;;;;;;;;;5030902;28;20322;-64
2023/06/22 04:48:51;;;;;;;;;;;;;;;;;;5012104;28;19929;-65
2023/06/22 04:51:21;;;;;;;;;;;;;;;;;;5029996;28;19954;-64
2023/06/22 04:53:47;;;;;;;;;;;;;;;;;;5013792;28;19921;-64
2023/06/22 04:56:15;;;;;;;;;;;;;;;;;;5011355;28;20379;-67
2023/06/22 04:58:41;;;;;;;;;;;;;;;;;;5014441;28;19929;-67
2023/06/22 05:01:08;;;;;;;;;;;;;;;;;;5014217;28;19925;-67
2023/06/22 05:03:36;;;;;;;;;;;;;;;;;;5013405;28;19921;-62
2023/06/22 05:06:02;;;;;;;;;;;;;;;;;;5012649;28;20055;-62
2023/06/22 05:08:28;;;;;;;;;;;;;;;;;;5014280;28;20398;-62
2023/06/22 05:10:54;;;;;;;;;;;;;;;;;;5029568;28;20398;-62
2023/06/22 05:13:21;;;;;;;;;;;;;;;;;;5012133;28;19929;-62
2023/06/22 05:15:47;;;;;;;;;;;;;;;;;;5013042;28;20330;-62
2023/06/22 05:18:13;;;;;;;;;;;;;;;;;;5014184;28;19933;-62
2023/06/22 05:20:39;;;;;;;;;;;;;;;;;;5010925;28;20271;-62
2023/06/22 05:23:05;;;;;;;;;;;;;;;;;;5013927;28;19937;-62
2023/06/22 05:25:32;;;;;;;;;;;;;;;;;;5029053;28;19925;-62
2023/06/22 05:27:58;;;;;;;;;;;;;;;;;;5013974;28;19964;-62
2023/06/22 05:30:24;;;;;;;;;;;;;;;;;;5007732;28;19969;-62
2023/06/22 05:32:50;;;;;;;;;;;;;;;;;;5009732;28;19929;-61
2023/06/22 05:37:52;;;;;;;;;;;;;;;;;;5049835;28;19951;-59
2023/06/22 05:40:18;;;;;;;;;;;;;;;;;;5052739;28;19925;-60
2023/06/22 05:42:44;;;;;;;;;;;;;;;;;;5053041;28;19974;-60
2023/06/22 05:45:10;;;;;;;;;;;;;;;;;;5053326;28;19932;-60
2023/06/22 05:47:36;;;;;;;;;;;;;;;;;;5051720;28;19921;-61
2023/06/22 05:50:06;;;;;;;;;;;;;;;;;;5050894;28;20349;-60
2023/06/22 05:52:32;;;;;;;;;;;;;;;;;;5052808;28;20545;-59
2023/06/22 05:54:58;;;;;;;;;;;;;;;;;;5051099;28;19928;-59
2023/06/22 05:57:24;;;;;;;;;;;;;;;;;;5050923;28;19964;-60
2023/06/22 05:59:49;;;;;;;;;;;;;;;;;;5052911;28;19978;-60
2023/06/22 06:02:15;;;;;;;;;;;;;;;;;;5049435;28;19924;-60
2023/06/22 06:04:41;;;;;;;;;;;;;;;;;;5051574;28;20397;-60
2023/06/22 06:07:07;;;;;;;;;;;;;;;;;;5050813;28;20480;-60
2023/06/22 06:09:33;;;;;;;;;;;;;;;;;;5051402;28;19925;-62
2023/06/22 06:11:59;;;;;;;;;;;;;;;;;;5049963;28;20011;-60
2023/06/22 06:14:25;;;;;;;;;;;;;;;;;;5049224;28;19928;-59
2023/06/22 06:16:51;;;;;;;;;;;;;;;;;;5044564;28;19927;-60
2023/06/22 06:19:17;;;;;;;;;;;;;;;;;;5049115;28;19929;-61
2023/06/22 06:21:43;;;;;;;;;;;;;;;;;;5051596;28;19920;-61
2023/06/22 06:24:09;;;;;;;;;;;;;;;;;;5049905;28;19931;-61
2023/06/22 06:26:35;;;;;;;;;;;;;;;;;;5048052;28;20469;-61
2023/06/22 06:29:02;;;;;;;;;;;;;;;;;;5045612;28;20429;-61
2023/06/22 06:31:28;;;;;;;;;;;;;;;;;;5045201;28;19968;-60
2023/06/22 06:33:54;;;;;;;;;;;;;;;;;;5044720;28;20301;-60
2023/06/22 06:36:20;;;;;;;;;;;;;;;;;;5032774;28;19938;-60
2023/06/22 06:38:47;;;;;;;;;;;;;;;;;;5040238;28;19921;-60
2023/06/22 06:41:13;;;;;;;;;;;;;;;;;;5044013;28;19933;-61
2023/06/22 06:43:38;;;;;;;;;;;;;;;;;;5026881;28;19921;-60
2023/06/22 06:46:04;;;;;;;;;;;;;;;;;;5046059;28;19921;-61
2023/06/22 06:48:30;;;;;;;;;;;;;;;;;;5049079;28;19924;-61
2023/06/22 06:50:56;;;;;;;;;;;;;;;;;;5033021;28;19924;-61
2023/06/22 06:53:22;;;;;;;;;;;;;;;;;;5050942;28;19920;-61
2023/06/22 06:55:48;;;;;;;;;;;;;;;;;;5049370;28;19927;-60
2023/06/22 06:58:14;;;;;;;;;;;;;;;;;;5041076;28;19950;-61
2023/06/22 07:00:40;;;;;;;;;;;;;;;;;;5049253;28;19931;-60
2023/06/22 07:03:07;;;;;;;;;;;;;;;;;;5051758;28;20011;-60
2023/06/22 07:05:33;;;;;;;;;;;;;;;;;;5049318;28;19924;-60
2023/06/22 07:07:59;;;;;;;;;;;;;;;;;;5051966;28;20622;-60
2023/06/22 07:10:25;;;;;;;;;;;;;;;;;;5051906;28;19975;-60
2023/06/22 07:12:51;;;;;;;;;;;;;;;;;;5049532;28;19925;-61
2023/06/22 07:15:17;;;;;;;;;;;;;;;;;;5051670;28;19929;-60
2023/06/22 07:17:42;;;;;;;;;;;;;;;;;;5050538;28;19925;-60
2023/06/22 07:20:10;;;;;;;;;;;;;;;;;;5049306;28;19924;-62
2023/06/22 07:22:36;;;;;;;;;;;;;;;;;;5041754;28;19928;-60
2023/06/22 07:25:05;;;;;;;;;;;;;;;;;;5050591;28;20362;-60
2023/06/22 07:27:35;;;;;;;;;;;;;;;;;;5054361;28;20209;-61
2023/06/22 07:30:01;;;;;;;;;;;;;;;;;;5055117;28;20386;-61
2023/06/22 07:32:28;;;;;;;;;;;;;;;;;;5055308;28;19963;-60
2023/06/22 07:34:54;;;;;;;;;;;;;;;;;;5055985;28;20370;-60
2023/06/22 07:37:20;;;;;;;;;;;;;;;;;;5056065;28;19925;-61
2023/06/22 07:39:46;;;;;;;;;;;;;;;;;;5057631;28;19929;-60
2023/06/22 07:42:12;;;;;;;;;;;;;;;;;;5058314;28;19947;-60
2023/06/22 07:44:38;;;;;;;;;;;;;;;;;;5058472;28;19924;-60
2023/06/22 07:47:04;;;;;;;;;;;;;;;;;;5057817;28;20558;-60
2023/06/22 07:49:29;;;;;;;;;;;;;;;;;;5057442;28;19928;-60
2023/06/22 07:51:55;;;;;;;;;;;;;;;;;;5030349;28;19936;-60
2023/06/22 07:54:21;;;;;;;;;;;;;;;;;;5048714;28;19963;-60
2023/06/22 07:56:47;;;;;;;;;;;;;;;;;;5051306;28;20324;-61
2023/06/22 07:59:13;;;;;;;;;;;;;;;;;;5055329;28;19935;-61
2023/06/22 08:01:39;;;;;;;;;;;;;;;;;;5056869;28;19940;-60
2023/06/22 08:04:05;;;;;;;;;;;;;;;;;;5054962;28;19996;-61
2023/06/22 08:06:31;;;;;;;;;;;;;;;;;;5054992;28;19929;-61
2023/06/22 08:08:58;;;;;;;;;;;;;;;;;;5056022;28;19975;-61
2023/06/22 08:11:25;;;;;;;;;;;;;;;;;;5057851;28;19933;-61
2023/06/22 08:13:51;;;;;;;;;;;;;;;;;;5056915;28;20353;-60
2023/06/22 08:16:17;;;;;;;;;;;;;;;;;;5038944;28;19956;-60
2023/06/22 08:18:43;;;;;;;;;;;;;;;;;;5052017;28;19927;-60
2023/06/22 08:21:08;;;;;;;;;;;;;;;;;;5055942;28;19928;-60
2023/06/22 08:23:35;;;;;;;;;;;;;;;;;;5050052;28;20334;-60
2023/06/22 08:26:01;;;;;;;;;;;;;;;;;;5046903;28;20409;-60
2023/06/22 08:28:27;;;;;;;;;;;;;;;;;;5057650;28;19921;-59
2023/06/22 08:30:53;;;;;;;;;;;;;;;;;;5049629;28;19971;-60
2023/06/22 08:33:19;;;;;;;;;;;;;;;;;;5047996;28;19920;-59
2023/06/22 08:35:45;;;;;;;;;;;;;;;;;;5053606;28;20262;-59
2023/06/22 08:38:13;;;;;;;;;;;;;;;;;;5042842;28;19925;-60
2023/06/22 08:40:39;;;;;;;;;;;;;;;;;;5053896;28;20382;-60
2023/06/22 08:43:05;;;;;;;;;;;;;;;;;;5057227;28;20012;-60
2023/06/22 08:45:31;;;;;;;;;;;;;;;;;;5055020;28;19920;-60
2023/06/22 08:47:57;;;;;;;;;;;;;;;;;;5058906;28;19944;-60
2023/06/22 08:50:23;;;;;;;;;;;;;;;;;;5054345;28;20021;-61
2023/06/22 08:52:49;;;;;;;;;;;;;;;;;;5054087;28;20366;-60
2023/06/22 08:55:15;;;;;;;;;;;;;;;;;;5044058;28;19931;-60
2023/06/22 08:57:41;;;;;;;;;;;;;;;;;;5033525;28;19929;-63
2023/06/22 09:00:11;;;;;;;;;;;;;;;;;;5034194;28;19929;-60
2023/06/22 09:02:38;;;;;;;;;;;;;;;;;;5039351;28;20294;-60
2023/06/22 09:05:04;;;;;;;;;;;;;;;;;;5052466;28;20317;-60
2023/06/22 09:07:30;;;;;;;;;;;;;;;;;;5051288;28;19954;-60
2023/06/22 09:09:56;;;;;;;;;;;;;;;;;;5049509;28;20007;-60
2023/06/22 09:12:25;;;;;;;;;;;;;;;;;;5050288;28;19920;-60
2023/06/22 09:14:51;;;;;;;;;;;;;;;;;;5050964;28;20473;-60
2023/06/22 09:17:17;;;;;;;;;;;;;;;;;;5050838;28;20012;-60
2023/06/22 09:19:43;;;;;;;;;;;;;;;;;;5038323;28;19929;-60
2023/06/22 09:22:09;;;;;;;;;;;;;;;;;;5043187;28;20024;-60
2023/06/22 09:24:35;;;;;;;;;;;;;;;;;;5048368;28;20833;-60
2023/06/22 09:27:00;;;;;;;;;;;;;;;;;;5052268;28;19921;-60
2023/06/22 09:29:26;;;;;;;;;;;;;;;;;;5045530;28;19933;-60
2023/06/22 09:31:53;;;;;;;;;;;;;;;;;;5045680;28;19975;-61
2023/06/22 09:34:20;;;;;;;;;;;;;;;;;;5049231;28;20437;-60
2023/06/22 09:36:46;;;;;;;;;;;;;;;;;;5046480;28;20019;-61
2023/06/22 09:39:11;;;;;;;;;;;;;;;;;;5047104;28;20007;-61
2023/06/22 09:41:37;;;;;;;;;;;;;;;;;;5047869;28;20306;-60
2023/06/22 09:44:03;;;;;;;;;;;;;;;;;;5047391;28;19925;-60
2023/06/22 09:46:29;;;;;;;;;;;;;;;;;;5047562;28;19924;-61
2023/06/22 09:48:55;;;;;;;;;;;;;;;;;;5048111;28;19960;-61
2023/06/22 09:51:23;;;;;;;;;;;;;;;;;;5049813;28;20337;-61
2023/06/22 09:53:49;;;;;;;;;;;;;;;;;;5050869;28;19921;-61
2023/06/22 09:56:15;;;;;;;;;;;;;;;;;;5047740;28;19947;-61
2023/06/22 09:58:41;;;;;;;;;;;;;;;;;;5047150;28;20281;-61
2023/06/22 10:01:07;;;;;;;;;;;;;;;;;;5052676;28;20221;-61
2023/06/22 10:03:33;;;;;;;;;;;;;;;;;;5047343;28;19927;-61
2023/06/22 10:05:59;;;;;;;;;;;;;;;;;;5049531;28;19931;-61
2023/06/22 10:08:25;;;;;;;;;;;;;;;;;;5049854;28;19924;-61
2023/06/22 10:10:51;;;;;;;;;;;;;;;;;;5052264;28;20342;-61
2023/06/22 10:13:17;;;;;;;;;;;;;;;;;;5048923;28;19921;-61
2023/06/22 10:15:45;;;;;;;;;;;;;;;;;;5047446;28;19940;-60
2023/06/22 10:18:11;;;;;;;;;;;;;;;;;;5047425;28;19928;-60
2023/06/22 10:20:37;;;;;;;;;;;;;;;;;;5048537;28;20015;-60
2023/06/22 10:23:03;;;;;;;;;;;;;;;;;;5046038;28;19921;-60
2023/06/22 10:25:29;;;;;;;;;;;;;;;;;;5048092;28;19936;-60
2023/06/22 10:27:54;;;;;;;;;;;;;;;;;;5047823;28;20378;-60
2023/06/22 10:30:21;;;;;;;;;;;;;;;;;;5036702;28;20007;-60
2023/06/22 10:32:47;;;;;;;;;;;;;;;;;;5046250;28;19928;-60
2023/06/22 10:35:15;;;;;;;;;;;;;;;;;;5048446;28;19929;-64
2023/06/22 10:37:42;;;;;;;;;;;;;;;;;;5045565;28;19929;-64
2023/06/22 10:40:08;;;;;;;;;;;;;;;;;;5046142;28;19925;-64
2023/06/22 10:42:34;;;;;;;;;;;;;;;;;;5046541;28;19978;-64
2023/06/22 10:45:00;;;;;;;;;;;;;;;;;;5021923;28;19925;-64
2023/06/22 10:47:26;;;;;;;;;;;;;;;;;;5048445;28;19968;-64
2023/06/22 10:49:52;;;;;;;;;;;;;;;;;;5047932;28;19921;-64
2023/06/22 10:52:18;;;;;;;;;;;;;;;;;;5047783;28;19928;-64
2023/06/22 10:54:44;;;;;;;;;;;;;;;;;;5050294;28;19924;-64
2023/06/22 10:57:10;;;;;;;;;;;;;;;;;;5048429;28;19921;-64
2023/06/22 10:59:36;;;;;;;;;;;;;;;;;;5044126;28;19936;-64
2023/06/22 11:02:02;;;;;;;;;;;;;;;;;;5047627;28;19925;-64
2023/06/22 11:04:28;;;;;;;;;;;;;;;;;;5051295;28;19932;-64
2023/06/22 11:06:54;;;;;;;;;;;;;;;;;;5051911;28;19920;-64
2023/06/22 11:09:23;;;;;;;;;;;;;;;;;;5067327;28;20350;-64
2023/06/22 11:11:48;;;;;;;;;;;;;;;;;;5050604;28;19967;-64
2023/06/22 11:14:14;;;;;;;;;;;;;;;;;;5044324;28;20022;-64
2023/06/22 11:16:40;;;;;;;;;;;;;;;;;;5042267;28;19921;-64
2023/06/22 11:19:06;;;;;;;;;;;;;;;;;;5045924;28;20486;-64
2023/06/22 11:21:32;;;;;;;;;;;;;;;;;;5044150;28;19935;-63
2023/06/22 11:23:58;;;;;;;;;;;;;;;;;;5047728;28;19928;-64
2023/06/22 11:26:25;;;;;;;;;;;;;;;;;;5047951;28;19927;-64
2023/06/22 11:28:50;;;;;;;;;;;;;;;;;;5048323;28;19925;-63
2023/06/22 11:31:16;;;;;;;;;;;;;;;;;;5049801;28;20020;-63
2023/06/22 11:33:44;;;;;;;;;;;;;;;;;;5045746;28;20046;-62
2023/06/22 11:36:11;;;;;;;;;;;;;;;;;;5045086;28;19941;-62
2023/06/22 11:38:38;;;;;;;;;;;;;;;;;;5046948;28;19929;-63
2023/06/22 11:41:04;;;;;;;;;;;;;;;;;;5046839;28;20007;-62
2023/06/22 11:43:30;;;;;;;;;;;;;;;;;;5046573;28;20023;-63
2023/06/22 11:45:57;;;;;;;;;;;;;;;;;;5050496;28;19927;-63
2023/06/22 11:48:23;;;;;;;;;;;;;;;;;;5049869;28;19921;-63
2023/06/22 11:50:49;;;;;;;;;;;;;;;;;;5049153;28;19950;-63
2023/06/22 11:53:17;;;;;;;;;;;;;;;;;;5033810;28;19920;-63
2023/06/22 11:55:43;;;;;;;;;;;;;;;;;;5050137;28;20366;-63
2023/06/22 11:58:09;;;;;;;;;;;;;;;;;;5039710;28;19927;-63
2023/06/22 12:00:34;;;;;;;;;;;;;;;;;;5035363;28;19925;-63
2023/06/22 12:03:00;;;;;;;;;;;;;;;;;;5048720;28;19925;-63
2023/06/22 12:05:26;;;;;;;;;;;;;;;;;;5039569;28;19925;-62
2023/06/22 12:07:52;;;;;;;;;;;;;;;;;;5048874;28;19955;-63
2023/06/22 12:10:18;;;;;;;;;;;;;;;;;;5039624;28;19951;-62
2023/06/22 12:12:44;;;;;;;;;;;;;;;;;;5051235;28;19924;-62
2023/06/22 12:15:10;;;;;;;;;;;;;;;;;;5050862;28;19931;-62
2023/06/22 12:17:36;;;;;;;;;;;;;;;;;;5055047;28;19971;-62
2023/06/22 12:20:05;;;;;;;;;;;;;;;;;;5052831;28;19924;-60
2023/06/22 12:22:31;;;;;;;;;;;;;;;;;;5055105;28;19925;-60
2023/06/22 12:24:57;;;;;;;;;;;;;;;;;;5054889;28;19931;-60
2023/06/22 12:27:22;;;;;;;;;;;;;;;;;;5048399;28;19921;-60
2023/06/22 12:29:48;;;;;;;;;;;;;;;;;;5052507;28;19928;-60
2023/06/22 12:32:14;;;;;;;;;;;;;;;;;;5050484;28;19932;-61
2023/06/22 12:34:40;;;;;;;;;;;;;;;;;;5052518;28;19933;-61
2023/06/22 12:37:06;;;;;;;;;;;;;;;;;;5050681;28;19925;-61
2023/06/22 12:39:32;;;;;;;;;;;;;;;;;;5053139;28;19996;-61
2023/06/22 12:41:58;;;;;;;;;;;;;;;;;;5040863;28;19932;-61
2023/06/22 12:44:24;;;;;;;;;;;;;;;;;;5047398;28;19932;-61
2023/06/22 12:46:50;;;;;;;;;;;;;;;;;;5048525;28;19956;-60
2023/06/22 12:49:16;;;;;;;;;;;;;;;;;;5049531;28;20004;-60
2023/06/22 12:51:42;;;;;;;;;;;;;;;;;;5052374;28;20448;-60
2023/06/22 12:54:08;;;;;;;;;;;;;;;;;;5047373;28;19929;-61
2023/06/22 12:56:34;;;;;;;;;;;;;;;;;;5047938;28;19927;-60
2023/06/22 12:59:03;;;;;;;;;;;;;;;;;;5048886;28;19920;-60
2023/06/22 13:01:30;;;;;;;;;;;;;;;;;;5046868;28;20058;-61
2023/06/22 13:03:56;;;;;;;;;;;;;;;;;;5048163;28;20330;-60
2023/06/22 13:06:22;;;;;;;;;;;;;;;;;;5047462;28;20058;-60
2023/06/22 13:08:47;;;;;;;;;;;;;;;;;;5051110;28;19956;-60
2023/06/22 13:11:13;;;;;;;;;;;;;;;;;;5048252;28;20294;-60
2023/06/22 13:13:39;;;;;;;;;;;;;;;;;;5047202;28;19921;-60
2023/06/22 13:16:05;;;;;;;;;;;;;;;;;;5043625;28;19921;-61
2023/06/22 13:18:31;;;;;;;;;;;;;;;;;;5053154;28;19951;-60
2023/06/22 13:20:58;;;;;;;;;;;;;;;;;;5042359;28;20313;-60
2023/06/22 13:23:23;;;;;;;;;;;;;;;;;;5049679;28;19928;-61
2023/06/22 13:25:49;;;;;;;;;;;;;;;;;;5046267;28;19932;-60
2023/06/22 13:28:15;;;;;;;;;;;;;;;;;;5047562;28;19921;-60
2023/06/22 13:30:41;;;;;;;;;;;;;;;;;;5045938;28;19921;-60
2023/06/22 13:33:08;;;;;;;;;;;;;;;;;;5046579;28;19937;-60
2023/06/22 13:35:35;;;;;;;;;;;;;;;;;;5047680;28;20341;-60
2023/06/22 13:38:00;;;;;;;;;;;;;;;;;;5046947;28;19920;-61
2023/06/22 13:40:26;;;;;;;;;;;;;;;;;;5044586;28;19975;-61
2023/06/22 13:42:52;;;;;;;;;;;;;;;;;;5037853;28;20306;-61
2023/06/22 13:45:19;;;;;;;;;;;;;;;;;;5042153;28;19925;-61
2023/06/22 13:47:45;;;;;;;;;;;;;;;;;;5050402;28;19925;-61
2023/06/22 13:50:12;;;;;;;;;;;;;;;;;;5045465;28;19931;-61
2023/06/22 13:52:38;;;;;;;;;;;;;;;;;;5050777;28;19936;-61
2023/06/22 13:55:04;;;;;;;;;;;;;;;;;;5049021;28;19921;-61
2023/06/22 13:57:30;;;;;;;;;;;;;;;;;;5050531;28;19927;-61
2023/06/22 13:59:56;;;;;;;;;;;;;;;;;;5044642;28;19928;-61
2023/06/22 14:02:22;;;;;;;;;;;;;;;;;;5046351;28;20432;-61
2023/06/22 14:04:48;;;;;;;;;;;;;;;;;;5044927;28;19931;-61
2023/06/22 14:07:14;;;;;;;;;;;;;;;;;;5048822;28;20016;-61
2023/06/22 14:09:40;;;;;;;;;;;;;;;;;;5051248;28;19925;-61
2023/06/22 14:12:06;;;;;;;;;;;;;;;;;;5048938;28;19968;-61
2023/06/22 14:14:32;;;;;;;;;;;;;;;;;;5051814;28;19927;-61
2023/06/22 14:16:58;;;;;;;;;;;;;;;;;;5044275;28;21848;-61
2023/06/22 14:19:24;;;;;;;;;;;;;;;;;;5047252;28;19932;-61
2023/06/22 14:21:50;;;;;;;;;;;;;;;;;;5049717;28;19994;-60
2023/06/22 14:24:16;;;;;;;;;;;;;;;;;;5047323;28;19963;-60
2023/06/22 14:26:42;;;;;;;;;;;;;;;;;;5051020;28;19925;-60
2023/06/22 14:29:08;;;;;;;;;;;;;;;;;;5055354;28;19936;-60
2023/06/22 14:31:34;;;;;;;;;;;;;;;;;;5026794;28;19982;-61
2023/06/22 14:34:00;;;;;;;;;;;;;;;;;;5050564;28;20385;-60
2023/06/22 14:36:26;;;;;;;;;;;;;;;;;;5051024;28;19940;-60
2023/06/22 14:38:52;;;;;;;;;;;;;;;;;;5049101;28;20290;-60
2023/06/22 14:41:18;;;;;;;;;;;;;;;;;;5050791;28;19936;-60
2023/06/22 14:43:44;;;;;;;;;;;;;;;;;;5048862;28;20015;-60
2023/06/22 14:46:09;;;;;;;;;;;;;;;;;;5046518;28;19929;-60
2023/06/22 14:48:35;;;;;;;;;;;;;;;;;;5046038;28;20420;-60
2023/06/22 14:51:01;;;;;;;;;;;;;;;;;;5045682;28;19936;-61
2023/06/22 14:53:27;;;;;;;;;;;;;;;;;;5049787;28;19991;-60
2023/06/22 14:55:54;;;;;;;;;;;;;;;;;;5029766;28;19925;-60
2023/06/22 14:58:20;;;;;;;;;;;;;;;;;;5050987;28;19947;-60
2023/06/22 15:00:46;;;;;;;;;;;;;;;;;;5044212;28;19928;-61
2023/06/22 15:03:16;;;;;;;;;;;;;;;;;;5049377;28;19983;-60
2023/06/22 15:05:42;;;;;;;;;;;;;;;;;;5050409;28;20007;-60
2023/06/22 15:08:08;;;;;;;;;;;;;;;;;;5050449;28;20020;-60
2023/06/22 15:10:34;;;;;;;;;;;;;;;;;;5049585;28;19950;-60
2023/06/22 15:13:01;;;;;;;;;;;;;;;;;;5047272;28;19928;-60
2023/06/22 15:15:27;;;;;;;;;;;;;;;;;;5039279;28;20358;-60
2023/06/22 15:17:53;;;;;;;;;;;;;;;;;;5039107;28;19974;-60
2023/06/22 15:20:18;;;;;;;;;;;;;;;;;;5041322;28;19955;-60
2023/06/22 15:22:45;;;;;;;;;;;;;;;;;;5044905;28;19927;-60
2023/06/22 15:25:11;;;;;;;;;;;;;;;;;;5057033;28;20076;-59
2023/06/22 15:27:37;;;;;;;;;;;;;;;;;;5038385;28;19925;-60
2023/06/22 15:30:03;;;;;;;;;;;;;;;;;;5034468;28;19925;-60
2023/06/22 15:32:29;;;;;;;;;;;;;;;;;;5049512;28;19990;-60
2023/06/22 15:34:55;;;;;;;;;;;;;;;;;;5051335;28;20366;-60
2023/06/22 15:37:21;;;;;;;;;;;;;;;;;;5043463;28;19955;-59
2023/06/22 15:39:47;;;;;;;;;;;;;;;;;;5041612;28;19971;-60
2023/06/22 15:42:13;;;;;;;;;;;;;;;;;;5060613;28;19928;-60
2023/06/22 15:44:39;;;;;;;;;;;;;;;;;;5048879;28;20612;-60
2023/06/22 15:47:05;;;;;;;;;;;;;;;;;;5046401;28;20741;-60
2023/06/22 15:49:31;;;;;;;;;;;;;;;;;;5052026;28;19925;-60
2023/06/22 15:51:57;;;;;;;;;;;;;;;;;;5052721;28;19943;-60
2023/06/22 15:54:23;;;;;;;;;;;;;;;;;;5047380;28;19921;-60
2023/06/22 15:56:48;;;;;;;;;;;;;;;;;;5032689;28;19983;-61
2023/06/22 15:59:14;;;;;;;;;;;;;;;;;;5054626;28;19928;-61
2023/06/22 16:01:40;;;;;;;;;;;;;;;;;;5054478;28;19971;-60
2023/06/22 16:04:06;;;;;;;;;;;;;;;;;;5056276;28;20381;-61
2023/06/22 16:06:32;;;;;;;;;;;;;;;;;;5055964;28;19963;-60
2023/06/22 16:08:58;;;;;;;;;;;;;;;;;;5047304;28;19928;-60
2023/06/22 16:11:24;;;;;;;;;;;;;;;;;;5048337;28;20385;-59
2023/06/22 16:13:50;;;;;;;;;;;;;;;;;;5047544;28;19925;-59
2023/06/22 16:16:16;;;;;;;;;;;;;;;;;;5051649;28;19939;-60
2023/06/22 16:18:42;;;;;;;;;;;;;;;;;;5040535;28;19956;-61
2023/06/22 16:21:08;;;;;;;;;;;;;;;;;;5049547;28;19982;-61
2023/06/22 16:23:33;;;;;;;;;;;;;;;;;;5050610;28;19921;-60
2023/06/22 16:25:59;;;;;;;;;;;;;;;;;;5041149;28;19921;-60
2023/06/22 16:28:25;;;;;;;;;;;;;;;;;;5050957;28;19932;-59
2023/06/22 16:30:51;;;;;;;;;;;;;;;;;;5049544;28;19928;-60
2023/06/22 16:33:17;;;;;;;;;;;;;;;;;;5051641;28;19921;-60
2023/06/22 16:35:43;;;;;;;;;;;;;;;;;;5049743;28;19931;-60
2023/06/22 16:38:09;;;;;;;;;;;;;;;;;;5051670;28;19925;-60
2023/06/22 16:40:35;;;;;;;;;;;;;;;;;;5049842;28;19931;-60